Time;durP1;ratioP1;P1;durP2;ratioP2;P2;SDS_P1;SDS_P2;PMS_P1;PMS_P2;Temp;Humidity;BMP_temperature;BMP_pressure;BME280_temperature;BME280_humidity;BME280_pressure;Samples;Min_cycle;Max_cycle;Signal;HPM_P1;HPM_P2
2022/09/01 00:01:52;;;;;;;2.90;1.27;;;;;;;18.26;54.50;100353.94;5072431;28;20067;-82
2022/09/01 00:04:22;;;;;;;3.20;1.40;;;;;;;18.40;54.00;100337.41;5071886;28;20044;-82
2022/09/01 00:06:48;;;;;;;4.90;1.20;;;;;;;18.49;53.88;100345.78;5072410;28;20474;-82
2022/09/01 00:09:17;;;;;;;3.53;1.17;;;;;;;18.44;54.25;100345.91;5077330;28;20089;-82
2022/09/01 00:11:45;;;;;;;2.28;1.30;;;;;;;18.46;54.21;100349.19;5092704;28;20020;-82
2022/09/01 00:14:12;;;;;;;2.65;1.65;;;;;;;18.48;54.46;100344.19;5074433;28;20044;-83
2022/09/01 00:16:37;;;;;;;3.60;1.33;;;;;;;18.49;54.19;100345.78;5108746;28;20039;-81
2022/09/01 00:19:03;;;;;;;16.35;1.38;;;;;;;18.52;53.89;100344.38;5084512;28;20481;-81
2022/09/01 00:21:33;;;;;;;27.50;2.30;;;;;;;18.51;54.10;100348.28;5076397;28;20060;-82
2022/09/01 00:23:59;;;;;;;2.92;1.42;;;;;;;18.30;53.99;100348.63;5075353;28;20131;-83
2022/09/01 00:26:24;;;;;;;5.55;2.10;;;;;;;18.16;55.18;100351.34;5082321;28;20027;-82
2022/09/01 00:28:50;;;;;;;7.43;3.13;;;;;;;18.16;55.08;100354.09;5089660;28;20168;-82
2022/09/01 00:31:18;;;;;;;10.27;2.03;;;;;;;18.33;54.53;100334.22;5075890;28;20053;-81
2022/09/01 00:33:43;;;;;;;7.85;1.98;;;;;;;18.27;54.58;100347.28;5075293;28;20040;-81
2022/09/01 00:36:09;;;;;;;9.40;2.30;;;;;;;18.33;54.27;100348.03;5075917;28;20059;-81
2022/09/01 00:38:36;;;;;;;4.00;1.45;;;;;;;18.26;54.17;100353.94;5074840;28;20068;-83
2022/09/01 00:41:01;;;;;;;3.65;1.38;;;;;;;18.36;54.08;100346.59;5090027;28;20075;-82
2022/09/01 00:43:45;;;;;;;4.10;1.42;;;;;;;18.38;54.17;100339.66;5095911;28;20043;-81
2022/09/01 00:46:12;;;;;;;;;;;;;;;18.42;53.57;100340.69;5096201;28;20032;-82
2022/09/01 00:48:37;;;;;;;4.43;1.58;;;;;;;18.28;54.84;100348.13;5072964;28;19916;-83
2022/09/01 00:51:04;;;;;;;3.20;1.20;;;;;;;18.42;54.27;100345.38;5094346;28;20613;-83
2022/09/01 00:53:31;;;;;;;5.70;1.65;;;;;;;18.42;54.79;100346.22;5095632;28;20040;-82
2022/09/01 00:55:56;;;;;;;4.38;1.80;;;;;;;18.49;54.49;100351.31;5093193;28;20505;-82
2022/09/01 00:58:22;;;;;;;7.18;2.30;;;;;;;18.35;54.93;100344.94;5075897;28;20032;-82
2022/09/01 01:00:50;;;;;;;6.10;3.05;;;;;;;18.24;55.47;100352.59;5092122;28;20043;-82
2022/09/01 01:03:16;;;;;;;14.93;2.35;;;;;;;18.31;55.35;100342.81;5095226;28;20032;-82
2022/09/01 01:05:47;;;;;;;5.57;2.33;;;;;;;18.28;55.24;100343.44;5095357;28;20042;-83
2022/09/01 01:08:17;;;;;;;6.60;2.10;;;;;;;18.35;54.79;100344.94;5095150;28;20111;-83
2022/09/01 01:10:42;;;;;;;5.40;1.88;;;;;;;18.23;55.38;100339.91;5076851;28;20465;-83
2022/09/01 01:13:12;;;;;;;8.50;2.30;;;;;;;18.26;55.37;100339.31;5075324;28;20029;-82
2022/09/01 01:15:42;;;;;;;3.45;1.50;;;;;;;18.16;55.33;100337.53;5083992;28;20110;-82
2022/09/01 01:18:10;;;;;;;4.47;1.58;;;;;;;18.00;56.14;100334.22;5084122;28;20427;-82
2022/09/01 01:23:35;;;;;;;;;;;;;;;17.95;56.03;100338.69;5088096;28;20097;-82
2022/09/01 01:26:03;;;;;;;4.32;2.20;;;;;;;17.83;56.45;100341.94;5094054;28;19918;-82
2022/09/01 01:28:34;;;;;;;2.28;1.23;;;;;;;17.62;57.11;100336.72;5088609;28;20426;-82
2022/09/01 01:31:12;;;;;;;5.35;1.95;;;;;;;17.31;58.07;100348.16;5074712;28;20052;-82
2022/09/01 01:33:42;;;;;;;4.45;2.22;;;;;;;17.27;58.28;100342.44;5056767;28;20066;-81
2022/09/01 01:36:11;;;;;;;3.67;1.40;;;;;;;17.19;58.31;100350.56;5074862;28;20487;-81
2022/09/01 01:38:40;;;;;;;4.05;1.80;;;;;;;17.38;57.52;100345.88;5074290;28;20028;-82
2022/09/01 01:41:05;;;;;;;3.47;1.60;;;;;;;17.42;57.85;100345.28;5074894;28;20036;-82
2022/09/01 01:43:31;;;;;;;3.75;2.05;;;;;;;17.54;57.18;100348.41;5056756;28;20029;-82
2022/09/01 01:46:01;;;;;;;8.52;1.40;;;;;;;17.57;57.33;100344.25;5091047;28;20028;-82
2022/09/01 01:48:28;;;;;;;5.38;1.90;;;;;;;17.57;57.28;100345.06;5090616;28;20454;-81
2022/09/01 01:50:56;;;;;;;3.55;1.67;;;;;;;17.43;57.53;100341.41;5074763;28;20029;-82
2022/09/01 01:53:22;;;;;;;3.78;1.55;;;;;;;17.39;57.82;100349.44;5074427;28;20111;-82
2022/09/01 01:55:48;;;;;;;3.17;1.70;;;;;;;17.17;57.89;100350.03;5074264;28;20052;-82
2022/09/01 01:58:20;;;;;;;3.80;1.73;;;;;;;17.19;58.42;100350.56;5073650;28;20454;-82
2022/09/01 02:00:49;;;;;;;4.05;2.03;;;;;;;17.27;58.12;100347.13;5073667;28;20039;-83
2022/09/01 02:03:18;;;;;;;3.78;1.83;;;;;;;17.14;58.64;100349.50;5073859;28;20028;-82
2022/09/01 02:05:46;;;;;;;7.75;2.05;;;;;;;17.26;58.66;100351.00;5074528;28;20028;-82
2022/09/01 02:08:14;;;;;;;2.80;1.90;;;;;;;17.30;58.72;100354.81;5073951;28;20112;-82
2022/09/01 02:10:44;;;;;;;5.55;2.30;;;;;;;17.28;58.85;100348.78;5094058;28;20036;-82
2022/09/01 02:13:16;;;;;;;4.45;1.75;;;;;;;17.17;59.11;100348.06;5091611;28;20035;-82
2022/09/01 02:15:52;;;;;;;4.57;2.08;;;;;;;17.15;59.51;100355.81;5074160;28;20129;-81
2022/09/01 02:18:26;;;;;;;20.77;2.28;;;;;;;17.08;59.76;100353.41;5092624;28;20035;-82
2022/09/01 02:20:52;;;;;;;4.25;2.10;;;;;;;17.10;59.49;100353.09;5073369;28;20029;-82
2022/09/01 02:23:22;;;;;;;5.53;2.60;;;;;;;17.08;59.34;100356.16;5079071;28;20027;-82
2022/09/01 02:25:49;;;;;;;4.40;2.15;;;;;;;16.90;60.09;100350.28;5094120;28;20054;-82
2022/09/01 02:28:17;;;;;;;6.78;2.00;;;;;;;16.90;59.79;100349.50;5093737;28;20032;-82
2022/09/01 02:30:50;;;;;;;3.85;1.83;;;;;;;16.90;60.06;100350.28;5075088;28;20101;-82
2022/09/01 02:33:19;;;;;;;6.57;2.97;;;;;;;16.96;59.55;100350.25;5073523;28;20488;-82
2022/09/01 02:35:45;;;;;;;13.15;3.50;;;;;;;17.04;59.33;100355.13;5073163;28;20040;-82
2022/09/01 02:38:12;;;;;;;10.77;4.15;;;;;;;17.11;58.92;100349.22;5072868;28;20040;-83
2022/09/01 02:40:45;;;;;;;10.70;4.32;;;;;;;17.06;59.44;100347.38;5088034;28;20036;-83
2022/09/01 02:43:12;;;;;;;7.50;3.50;;;;;;;16.90;59.65;100355.81;5093351;28;20036;-81
2022/09/01 02:45:38;;;;;;;5.93;2.67;;;;;;;16.92;59.55;100356.34;5093129;28;20032;-81
2022/09/01 02:48:09;;;;;;;5.45;3.13;;;;;;;17.03;59.40;100356.22;5102228;28;20034;-81
2022/09/01 02:50:38;;;;;;;7.20;2.67;;;;;;;16.96;59.59;100353.84;5073048;28;20032;-82
2022/09/01 02:53:08;;;;;;;7.45;2.30;;;;;;;16.92;59.54;100356.34;5072904;28;20024;-82
2022/09/01 02:55:43;;;;;;;5.43;2.72;;;;;;;16.84;59.84;100356.19;5070789;28;20028;-80
2022/09/01 02:58:15;;;;;;;3.92;2.08;;;;;;;16.85;60.33;100353.13;5073237;28;20020;-82
2022/09/01 03:00:43;;;;;;;7.10;2.65;;;;;;;16.55;60.27;100346.84;5072209;28;20051;-83
2022/09/01 03:03:11;;;;;;;16.02;2.38;;;;;;;16.64;60.54;100347.84;5072265;28;20107;-83
2022/09/01 03:05:38;;;;;;;6.25;3.22;;;;;;;16.57;60.27;100355.63;5073125;28;20028;-82
2022/09/01 03:08:09;;;;;;;8.95;2.72;;;;;;;16.60;60.80;100354.22;5072813;28;20035;-83
2022/09/01 03:10:38;;;;;;;4.28;2.13;;;;;;;16.67;60.74;100355.53;5090863;28;20027;-81
2022/09/01 03:13:09;;;;;;;10.35;3.88;;;;;;;16.75;59.88;100356.81;5093045;28;20020;-83
2022/09/01 03:15:36;;;;;;;4.63;2.53;;;;;;;16.76;60.22;100343.88;5092813;28;20031;-82
2022/09/01 03:18:03;;;;;;;4.07;2.08;;;;;;;16.82;59.90;100348.19;5082890;28;20032;-82
2022/09/01 03:20:32;;;;;;;7.22;2.60;;;;;;;16.75;60.10;100350.47;5086978;28;20477;-83
2022/09/01 03:23:02;;;;;;;8.15;2.55;;;;;;;16.72;60.13;100349.13;5072613;28;20020;-82
2022/09/01 03:25:28;;;;;;;6.15;2.50;;;;;;;16.61;60.25;100361.38;5092480;28;20054;-82
2022/09/01 03:28:01;;;;;;;4.70;2.28;;;;;;;16.16;61.74;100360.41;5090946;28;20035;-82
2022/09/01 03:30:29;;;;;;;5.05;2.33;;;;;;;16.21;61.71;100354.84;5072486;28;20127;-82
2022/09/01 03:32:56;;;;;;;5.18;2.95;;;;;;;16.42;61.25;100353.84;5071519;28;20040;-83
2022/09/01 03:35:22;;;;;;;7.53;3.55;;;;;;;16.43;60.97;100361.78;5070681;28;20041;-83
2022/09/01 03:37:47;;;;;;;7.93;3.88;;;;;;;16.50;60.91;100360.63;5055418;28;20123;-82
2022/09/01 03:40:14;;;;;;;7.65;3.80;;;;;;;16.49;60.76;100359.00;5077287;28;20040;-81
2022/09/01 03:42:40;;;;;;;12.50;4.28;;;;;;;16.50;60.76;100358.72;5072425;28;20110;-81
2022/09/01 03:45:08;;;;;;;7.97;3.33;;;;;;;16.39;61.28;100357.19;5072883;28;20037;-82
2022/09/01 03:47:39;;;;;;;6.88;3.47;;;;;;;16.40;61.06;100359.63;5092844;28;20028;-82
2022/09/01 03:50:11;;;;;;;8.95;3.50;;;;;;;16.34;61.34;100355.28;5087364;28;20043;-82
2022/09/01 03:52:38;;;;;;;12.30;4.07;;;;;;;16.37;60.93;100354.72;5074627;28;20473;-82
2022/09/01 03:55:04;;;;;;;6.35;3.35;;;;;;;16.24;61.31;100352.63;5092476;28;20036;-83
2022/09/01 03:57:29;;;;;;;6.45;3.60;;;;;;;16.19;61.63;100359.00;5092520;28;20510;-82
2022/09/01 03:59:55;;;;;;;7.35;2.83;;;;;;;16.24;61.48;100353.47;5082022;28;20079;-82
2022/09/01 04:02:21;;;;;;;9.30;3.83;;;;;;;16.20;61.67;100347.72;5072533;28;20033;-82
2022/09/01 04:04:47;;;;;;;13.75;5.07;;;;;;;16.24;61.49;100352.63;5072587;28;20645;-82
2022/09/01 04:07:12;;;;;;;15.15;5.13;;;;;;;16.27;61.30;100344.63;5072437;28;20028;-82
2022/09/01 04:09:38;;;;;;;9.77;4.37;;;;;;;16.22;61.13;100348.25;5074236;28;20028;-82
2022/09/01 04:12:07;;;;;;;8.13;3.88;;;;;;;16.09;61.76;100354.41;5072593;28;20356;-81
2022/09/01 04:14:34;;;;;;;10.50;4.78;;;;;;;16.02;61.46;100348.41;5072694;28;20043;-82
2022/09/01 04:19:43;;;;;;;;;;;;;;;16.09;61.60;100346.16;5083230;28;20035;-82
2022/09/01 04:22:12;;;;;;;10.27;5.33;;;;;;;15.94;62.09;100352.56;5091718;28;19908;-82
2022/09/01 04:24:44;;;;;;;8.73;3.63;;;;;;;15.99;62.25;100350.59;5089635;28;20377;-82
2022/09/01 04:27:10;;;;;;;10.00;5.45;;;;;;;15.97;62.00;100352.00;5091918;28;20052;-81
2022/09/01 04:29:35;;;;;;;7.40;4.22;;;;;;;15.97;62.19;100347.31;5079334;28;20067;-82
2022/09/01 04:32:09;;;;;;;11.38;4.38;;;;;;;16.03;61.94;100353.63;5054165;28;20045;-82
2022/09/01 04:34:37;;;;;;;8.75;2.75;;;;;;;16.10;61.70;100345.06;5072028;28;20414;-83
2022/09/01 04:37:07;;;;;;;14.60;4.35;;;;;;;15.94;61.95;100345.16;5071826;28;20036;-81
2022/09/01 04:39:35;;;;;;;9.45;4.25;;;;;;;15.87;62.00;100348.22;5080457;28;20040;-82
2022/09/01 04:42:05;;;;;;;16.13;4.18;;;;;;;15.74;62.43;100344.19;5092594;28;20115;-82
2022/09/01 04:44:30;;;;;;;5.15;2.97;;;;;;;15.58;62.66;100348.16;5092008;28;20035;-82
2022/09/01 04:46:55;;;;;;;5.80;2.42;;;;;;;15.61;62.72;100355.81;5091915;28;20035;-81
2022/09/01 04:49:22;;;;;;;6.65;2.55;;;;;;;15.88;62.08;100354.56;5098038;28;20388;-82
2022/09/01 04:51:49;;;;;;;5.95;2.33;;;;;;;15.85;61.97;100355.09;5090634;28;20039;-81
2022/09/01 04:54:16;;;;;;;8.75;3.03;;;;;;;15.87;62.26;100353.72;5089741;28;20536;-82
2022/09/01 04:56:45;;;;;;;7.25;2.25;;;;;;;15.87;61.88;100352.91;5089636;28;20039;-82
2022/09/01 04:59:12;;;;;;;6.15;2.65;;;;;;;15.89;61.87;100361.69;5083018;28;20162;-81
2022/09/01 05:01:42;;;;;;;7.07;2.95;;;;;;;15.74;62.03;100352.44;5071726;28;20044;-81
2022/09/01 05:04:13;;;;;;;3.80;1.85;;;;;;;15.49;62.59;100359.75;5074288;28;20032;-81
2022/09/01 05:06:43;;;;;;;3.85;1.90;;;;;;;15.63;62.39;100348.94;5075434;28;20062;-82
2022/09/01 05:09:12;;;;;;;5.50;2.20;;;;;;;15.79;62.50;100361.75;5075535;28;20032;-82
2022/09/01 05:11:44;;;;;;;5.25;3.03;;;;;;;15.99;61.43;100347.84;5075151;28;20044;-81
2022/09/01 05:14:11;;;;;;;6.00;2.22;;;;;;;15.93;61.81;100351.75;5074803;28;20139;-82
2022/09/01 05:16:39;;;;;;;6.72;2.40;;;;;;;16.06;61.77;100357.75;5102540;28;20032;-83
2022/09/01 05:19:06;;;;;;;5.32;2.10;;;;;;;15.95;61.55;100351.44;5100038;28;20478;-82
2022/09/01 05:21:31;;;;;;;7.35;2.35;;;;;;;15.82;62.62;100358.44;5075312;28;20028;-82
2022/09/01 05:24:00;;;;;;;8.30;2.63;;;;;;;15.85;62.46;100363.34;5084319;28;20054;-82
2022/09/01 05:26:30;;;;;;;5.10;2.05;;;;;;;15.98;62.23;100353.66;5092109;28;20054;-82
2022/09/01 05:28:59;;;;;;;5.95;2.97;;;;;;;15.96;62.12;100356.69;5088151;28;20028;-83
2022/09/01 05:31:27;;;;;;;4.05;2.33;;;;;;;15.95;62.38;100356.94;5072128;28;20060;-82
2022/09/01 05:33:54;;;;;;;6.03;2.70;;;;;;;16.03;62.07;100364.63;5072012;28;20024;-82
2022/09/01 05:36:21;;;;;;;3.53;2.05;;;;;;;16.08;62.31;100364.59;5071816;28;20036;-82
2022/09/01 05:38:48;;;;;;;5.35;2.63;;;;;;;15.97;62.32;100358.31;5070437;28;20036;-81
2022/09/01 05:41:16;;;;;;;6.00;3.17;;;;;;;15.68;62.94;100367.31;5091979;28;20093;-82
2022/09/01 05:43:47;;;;;;;5.70;2.15;;;;;;;15.84;62.90;100365.31;5094681;28;20028;-82
2022/09/01 05:46:15;;;;;;;6.20;2.17;;;;;;;15.92;62.73;100366.63;5090946;28;20024;-82
2022/09/01 05:48:45;;;;;;;9.10;2.85;;;;;;;15.90;61.83;100366.09;5097980;28;20077;-83
2022/09/01 05:51:15;;;;;;;5.40;2.53;;;;;;;16.02;61.73;100363.00;5077222;28;20055;-83
2022/09/01 05:53:41;;;;;;;6.35;2.47;;;;;;;16.01;62.50;100369.56;5086412;28;20055;-83
2022/09/01 05:56:08;;;;;;;12.07;3.17;;;;;;;16.10;61.88;100367.06;5091141;28;20023;-83
2022/09/01 05:58:35;;;;;;;4.05;2.13;;;;;;;16.07;61.97;100368.44;5091762;28;20084;-83
2022/09/01 06:01:00;;;;;;;11.95;2.78;;;;;;;16.19;62.05;100370.81;5082863;28;20037;-82
2022/09/01 06:03:27;;;;;;;7.32;2.67;;;;;;;16.15;62.66;100375.25;5093869;28;20031;-82
2022/09/01 06:05:54;;;;;;;8.48;3.47;;;;;;;15.93;62.50;100371.00;5093854;28;20016;-82
2022/09/01 06:08:22;;;;;;;7.43;2.97;;;;;;;16.15;62.45;100375.25;5090341;28;20032;-82
2022/09/01 06:10:49;;;;;;;6.25;2.85;;;;;;;16.28;62.35;100372.94;5073062;28;20063;-82
2022/09/01 06:13:16;;;;;;;6.88;2.75;;;;;;;16.43;62.00;100367.31;5079193;28;20029;-81
2022/09/01 06:15:43;;;;;;;5.43;2.33;;;;;;;16.45;61.52;100373.34;5084147;28;20541;-83
2022/09/01 06:18:11;;;;;;;5.80;2.83;;;;;;;16.47;61.69;100375.00;5076129;28;20032;-82
2022/09/01 06:20:45;;;;;;;5.97;2.50;;;;;;;16.53;61.93;100374.66;5076047;28;20036;-82
2022/09/01 06:23:14;;;;;;;6.05;3.00;;;;;;;16.65;61.52;100370.69;5058757;28;20028;-82
2022/09/01 06:25:42;;;;;;;6.75;2.38;;;;;;;16.66;60.95;100373.13;5081755;28;20044;-82
2022/09/01 06:28:10;;;;;;;4.78;2.45;;;;;;;16.71;60.91;100374.19;5091718;28;20028;-83
2022/09/01 06:30:36;;;;;;;5.80;2.38;;;;;;;16.82;60.75;100369.41;5072785;28;20051;-83
2022/09/01 06:33:04;;;;;;;6.88;2.63;;;;;;;16.71;60.85;100371.44;5073304;28;20464;-83
2022/09/01 06:35:31;;;;;;;4.53;2.08;;;;;;;16.75;60.73;100373.34;5073759;28;20067;-82
2022/09/01 06:37:57;;;;;;;8.02;3.83;;;;;;;16.65;61.27;100387.19;5076273;28;20028;-83
2022/09/01 06:40:24;;;;;;;8.15;3.72;;;;;;;16.54;62.09;100378.22;5067621;28;20115;-82
2022/09/01 06:42:51;;;;;;;7.25;3.13;;;;;;;16.71;60.85;100385.22;5075939;28;20036;-83
2022/09/01 06:45:19;;;;;;;5.20;2.83;;;;;;;16.73;60.36;100380.22;5085790;28;20500;-83
2022/09/01 06:47:46;;;;;;;13.70;3.80;;;;;;;16.97;60.04;100387.69;5099585;28;20093;-83
2022/09/01 06:50:14;;;;;;;12.20;4.43;;;;;;;16.99;60.25;100385.44;5057321;28;20078;-83
2022/09/01 06:52:43;;;;;;;9.80;4.05;;;;;;;17.03;60.09;100387.34;5087904;28;20036;-83
2022/09/01 06:55:13;;;;;;;8.88;3.95;;;;;;;16.95;60.28;100385.22;5074355;28;20040;-83
2022/09/01 06:57:41;;;;;;;11.65;4.07;;;;;;;16.88;60.38;100390.28;5071382;28;20430;-83
2022/09/01 07:00:14;;;;;;;8.52;3.92;;;;;;;17.07;60.02;100393.06;5082961;28;20040;-82
2022/09/01 07:02:40;;;;;;;4.95;3.13;;;;;;;17.17;59.81;100386.66;5093412;28;20169;-82
2022/09/01 07:05:06;;;;;;;8.77;3.47;;;;;;;17.04;59.80;100388.97;5092845;28;20426;-83
2022/09/01 07:07:33;;;;;;;7.40;3.40;;;;;;;17.22;59.56;100385.78;5093316;28;20028;-81
2022/09/01 07:09:58;;;;;;;5.95;3.28;;;;;;;17.14;59.12;100384.50;5076692;28;20093;-82
2022/09/01 07:12:24;;;;;;;9.07;2.50;;;;;;;17.17;59.32;100388.59;5072336;28;20059;-81
2022/09/01 07:14:51;;;;;;;7.35;3.15;;;;;;;17.29;59.09;100388.97;5072177;28;20032;-82
2022/09/01 07:17:17;;;;;;;11.10;3.08;;;;;;;17.17;59.51;100391.34;5075090;28;20051;-82
2022/09/01 07:19:42;;;;;;;6.70;3.42;;;;;;;17.27;58.78;100399.47;5086411;28;20036;-82
2022/09/01 07:22:07;;;;;;;5.30;2.55;;;;;;;17.05;58.38;100395.31;5093139;28;20676;-83
2022/09/01 07:24:33;;;;;;;7.15;3.10;;;;;;;17.11;58.88;100388.63;5074249;28;20032;-84
2022/09/01 07:26:58;;;;;;;13.25;3.85;;;;;;;17.12;58.42;100390.31;5089865;28;20496;-83
2022/09/01 07:29:25;;;;;;;6.10;2.90;;;;;;;17.19;58.60;100383.63;5080289;28;20043;-80
2022/09/01 07:31:55;;;;;;;5.82;2.95;;;;;;;17.51;58.30;100390.38;5071833;28;20979;-83
2022/09/01 07:34:21;;;;;;;7.47;2.72;;;;;;;17.60;57.61;100398.78;5071960;28;20032;-82
2022/09/01 07:36:46;;;;;;;11.35;2.60;;;;;;;17.53;57.19;100393.66;5071410;28;20028;-81
2022/09/01 07:39:13;;;;;;;9.30;2.97;;;;;;;17.55;56.85;100385.91;5070214;28;20037;-80
2022/09/01 07:41:40;;;;;;;5.57;2.15;;;;;;;17.53;57.15;100388.13;5070821;28;20032;-80
2022/09/01 07:44:09;;;;;;;7.20;2.78;;;;;;;17.60;56.92;100388.56;5069543;28;20035;-81
2022/09/01 07:46:34;;;;;;;7.28;2.10;;;;;;;17.67;56.69;100392.91;5085064;28;20032;-80
2022/09/01 07:49:01;;;;;;;9.55;2.80;;;;;;;17.87;56.69;100390.94;5094851;28;20109;-81
2022/09/01 07:51:28;;;;;;;7.13;2.35;;;;;;;18.01;55.86;100389.09;5072002;28;20476;-81
2022/09/01 07:53:54;;;;;;;4.20;2.08;;;;;;;17.93;55.45;100384.25;5072074;28;20032;-80
2022/09/01 07:56:21;;;;;;;4.57;2.40;;;;;;;18.09;55.65;100387.56;5072373;28;20028;-81
2022/09/01 07:58:49;;;;;;;4.18;2.33;;;;;;;18.15;54.89;100374.50;5073683;28;20036;-80
2022/09/01 08:01:20;;;;;;;5.05;2.00;;;;;;;18.29;55.38;100380.09;5072252;28;20060;-79
2022/09/01 08:03:48;;;;;;;6.20;2.20;;;;;;;18.43;54.72;100380.13;5071949;28;20029;-80
2022/09/01 08:06:18;;;;;;;8.95;2.33;;;;;;;18.52;54.34;100383.03;5072119;28;20025;-79
2022/09/01 08:08:43;;;;;;;9.57;2.30;;;;;;;18.53;54.77;100379.97;5073770;28;20032;-80
2022/09/01 08:11:08;;;;;;;13.55;3.15;;;;;;;18.48;54.03;100369.03;5072048;28;20058;-80
2022/09/01 08:13:37;;;;;;;8.10;2.37;;;;;;;18.57;53.59;100376.59;5072089;28;20033;-80
2022/09/01 08:16:05;;;;;;;5.20;2.13;;;;;;;18.63;54.57;100378.94;5072068;28;20253;-81
2022/09/01 08:18:31;;;;;;;9.93;2.45;;;;;;;18.66;53.72;100374.75;5094086;28;20019;-85
2022/09/01 08:20:56;;;;;;;2.58;1.27;;;;;;;18.78;53.09;100380.59;5091285;28;20465;-80
2022/09/01 08:23:25;;;;;;;3.20;1.67;;;;;;;18.66;52.66;100372.00;5092227;28;20533;-80
2022/09/01 08:25:51;;;;;;;3.83;1.48;;;;;;;18.84;52.71;100377.72;5092223;28;20040;-80
2022/09/01 08:28:16;;;;;;;5.70;2.20;;;;;;;18.88;51.97;100378.75;5091504;28;20048;-80
2022/09/01 08:30:43;;;;;;;5.10;1.50;;;;;;;19.01;52.12;100383.50;5072231;28;20056;-80
2022/09/01 08:33:12;;;;;;;5.38;2.13;;;;;;;19.13;51.08;100380.22;5071521;28;20546;-80
2022/09/01 08:35:40;;;;;;;3.83;1.73;;;;;;;19.30;51.21;100380.72;5071760;28;20144;-81
2022/09/01 08:38:05;;;;;;;5.80;1.85;;;;;;;19.40;51.43;100375.00;5074860;28;20103;-79
2022/09/01 08:40:31;;;;;;;3.70;1.27;;;;;;;19.45;51.13;100377.63;5076552;28;20128;-88
2022/09/01 08:43:24;;;;;;;12.05;1.88;;;;;;;19.54;50.58;100374.13;5074652;28;20028;-87
2022/09/01 08:45:53;;;;;;;2.80;1.27;;;;;;;19.65;50.63;100371.97;5080603;28;20400;-84
2022/09/01 08:48:30;;;;;;;4.35;2.55;;;;;;;19.82;49.38;100374.88;5082611;28;20478;-82
2022/09/01 08:51:07;;;;;;;5.38;2.03;;;;;;;19.86;48.55;100377.81;5094503;28;20580;-83
2022/09/01 08:53:41;;;;;;;3.15;1.15;;;;;;;19.99;46.45;100369.78;5095087;28;20077;-83
2022/09/01 08:56:08;;;;;;;;;;;;;;;19.93;47.92;100371.84;5095992;28;20039;-82
2022/09/01 08:58:34;;;;;;;2.00;0.90;;;;;;;20.06;47.30;100364.59;5094188;28;20383;-83
2022/09/01 09:01:07;;;;;;;5.88;1.15;;;;;;;20.10;47.71;100364.81;5075266;28;20036;-84
2022/09/01 09:03:44;;;;;;;2.92;1.08;;;;;;;20.24;46.81;100364.78;5074666;28;20041;-83
2022/09/01 09:06:47;;;;;;;2.72;1.17;;;;;;;20.18;48.54;100361.28;5075031;28;20067;-83
2022/09/01 09:09:13;;;;;;;4.05;1.10;;;;;;;20.28;47.72;100362.97;5029899;28;20382;-83
2022/09/01 09:12:15;;;;;;;2.67;1.20;;;;;;;20.21;48.11;100359.84;5074834;28;20047;-83
2022/09/01 09:14:55;;;;;;;5.72;1.02;;;;;;;20.29;47.21;100361.88;5012914;28;20040;-83
2022/09/01 09:17:26;;;;;;;5.63;1.02;;;;;;;20.41;46.22;100359.34;5094942;28;20062;-83
2022/09/01 09:19:52;;;;;;;3.60;1.30;;;;;;;20.46;45.76;100352.03;5081415;28;20033;-82
2022/09/01 09:22:18;;;;;;;3.63;0.80;;;;;;;20.51;46.60;100352.69;5074330;28;20036;-83
2022/09/01 09:24:58;;;;;;;2.95;1.23;;;;;;;20.51;46.20;100357.41;5092260;28;20534;-83
2022/09/01 09:27:33;;;;;;;2.63;1.55;;;;;;;20.63;46.11;100354.03;5094636;28;20089;-83
2022/09/01 09:30:09;;;;;;;2.67;1.20;;;;;;;20.53;47.31;100352.38;5081359;28;20047;-83
2022/09/01 09:32:49;;;;;;;5.45;1.45;;;;;;;20.67;45.82;100334.81;5074531;28;20078;-84
2022/09/01 09:35:26;;;;;;;2.75;1.52;;;;;;;20.69;46.26;100340.88;5073408;28;20032;-83
2022/09/01 09:37:52;;;;;;;4.05;1.38;;;;;;;20.71;46.43;100339.41;5072668;28;20093;-83
2022/09/01 09:40:26;;;;;;;4.55;1.60;;;;;;;20.75;47.32;100339.59;5074096;28;20036;-83
2022/09/01 09:42:54;;;;;;;4.80;1.58;;;;;;;20.85;46.77;100333.75;5073900;28;20115;-82
2022/09/01 09:45:24;;;;;;;6.45;2.17;;;;;;;20.76;46.48;100341.25;5074054;28;20044;-83
2022/09/01 09:47:50;;;;;;;4.50;2.08;;;;;;;20.68;46.74;100333.72;5062990;28;20097;-82
2022/09/01 09:50:29;;;;;;;8.00;2.38;;;;;;;20.68;46.97;100325.41;5076128;28;20038;-83
2022/09/01 09:53:15;;;;;;;5.70;1.98;;;;;;;20.78;46.87;100327.88;5073905;28;20079;-83
2022/09/01 09:56:15;;;;;;;2.65;1.52;;;;;;;20.76;46.67;100327.38;5081430;28;20471;-83
2022/09/01 09:58:42;;;;;;;4.63;1.95;;;;;;;20.75;46.40;100323.78;5054233;28;20039;-83
2022/09/01 10:01:27;;;;;;;2.72;1.67;;;;;;;20.87;46.15;100314.88;5080551;28;20037;-85
2022/09/01 10:03:55;;;;;;;2.78;1.42;;;;;;;21.03;46.03;100306.13;5076756;28;20035;-81
2022/09/01 10:06:37;;;;;;;2.83;1.52;;;;;;;20.97;46.18;100315.75;5073379;28;20039;-81
2022/09/01 10:09:23;;;;;;;2.28;1.20;;;;;;;21.04;45.69;100307.75;5074132;28;20032;-82
2022/09/01 10:11:54;;;;;;;3.92;1.35;;;;;;;21.08;45.59;100296.84;5058961;28;20093;-82
2022/09/01 10:14:26;;;;;;;3.97;1.33;;;;;;;21.34;45.40;100301.59;5072673;28;20029;-82
2022/09/01 10:16:57;;;;;;;2.63;1.20;;;;;;;21.36;45.83;100293.78;5088957;28;20036;-80
2022/09/01 10:19:26;;;;;;;3.88;1.88;;;;;;;21.30;46.11;100297.84;5079426;28;20178;-79
2022/09/01 10:21:52;;;;;;;8.15;1.20;;;;;;;21.36;46.36;100296.53;5070439;28;20101;-82
2022/09/01 10:24:34;;;;;;;6.28;1.55;;;;;;;21.41;45.55;100293.63;5082973;28;20493;-81
2022/09/01 10:27:03;;;;;;;5.80;1.42;;;;;;;21.45;45.59;100289.06;5088167;28;20035;-81
2022/09/01 10:29:35;;;;;;;2.72;1.42;;;;;;;21.58;44.11;100290.00;5076377;28;20067;-79
2022/09/01 10:32:07;;;;;;;3.85;1.58;;;;;;;21.66;45.08;100291.16;5078016;28;20066;-80
2022/09/01 10:34:35;;;;;;;4.97;1.60;;;;;;;21.83;43.55;100283.16;5084813;28;20032;-80
2022/09/01 10:37:01;;;;;;;3.97;1.30;;;;;;;21.85;44.77;100283.66;5070757;28;20487;-79
2022/09/01 10:39:26;;;;;;;4.47;1.92;;;;;;;21.76;44.45;100281.69;5081228;28;20056;-78
2022/09/01 10:41:56;;;;;;;4.25;1.73;;;;;;;21.92;43.08;100278.41;5079386;28;20079;-80
2022/09/01 10:44:32;;;;;;;2.75;1.52;;;;;;;21.95;43.30;100277.75;5080845;28;20523;-81
2022/09/01 10:47:09;;;;;;;2.78;1.35;;;;;;;21.88;44.32;100278.28;5078359;28;20085;-80
2022/09/01 10:49:34;;;;;;;4.40;1.50;;;;;;;22.19;43.35;100259.72;5070596;28;20129;-80
2022/09/01 10:51:59;;;;;;;2.27;1.20;;;;;;;22.20;42.39;100277.19;5080623;28;20114;-81
2022/09/01 10:54:40;;;;;;;4.22;1.15;;;;;;;22.23;42.98;100266.22;5091221;28;20040;-80
2022/09/01 10:57:20;;;;;;;5.30;1.60;;;;;;;22.21;42.12;100274.06;5091701;28;20032;-81
2022/09/01 10:59:46;;;;;;;3.28;1.90;;;;;;;22.34;42.01;100263.91;5077877;28;20033;-86
2022/09/01 11:02:17;;;;;;;4.57;1.40;;;;;;;22.35;41.57;100264.72;5072145;28;20032;-88
2022/09/01 11:04:46;;;;;;;3.95;1.48;;;;;;;22.42;40.90;100261.41;5085034;28;20380;-85
2022/09/01 11:07:24;;;;;;;2.20;1.27;;;;;;;22.43;41.55;100266.66;5071962;28;20036;-86
2022/09/01 11:10:21;;;;;;;12.43;2.22;;;;;;;22.48;40.16;100265.63;5077272;28;20119;-85
2022/09/01 11:13:09;;;;;;;6.97;1.63;;;;;;;22.57;41.21;100262.84;5074503;28;20072;-85
2022/09/01 11:15:39;;;;;;;4.30;1.30;;;;;;;22.49;41.87;100262.56;5075834;28;20500;-85
2022/09/01 11:18:09;;;;;;;3.15;1.20;;;;;;;22.55;42.44;100249.28;5081867;28;20040;-86
2022/09/01 11:20:39;;;;;;;4.70;1.23;;;;;;;22.68;41.93;100258.53;5071754;28;20031;-87
2022/09/01 11:23:24;;;;;;;5.25;1.80;;;;;;;22.76;41.49;100253.28;5074522;28;20232;-85
2022/09/01 11:26:04;;;;;;;2.83;1.38;;;;;;;22.90;40.36;100256.63;5084247;28;20040;-86
2022/09/01 11:28:34;;;;;;;2.97;1.30;;;;;;;22.74;41.42;100251.63;5078258;28;20051;-86
2022/09/01 11:31:05;;;;;;;6.38;1.80;;;;;;;22.85;39.57;100262.38;5079806;28;20047;-87
2022/09/01 11:33:58;;;;;;;1.83;1.20;;;;;;;22.91;39.73;100261.03;5078668;28;20040;-85
2022/09/01 11:36:34;;;;;;;4.80;1.30;;;;;;;23.01;38.57;100258.97;5063791;28;20139;-85
2022/09/01 11:39:28;;;;;;;3.00;1.10;;;;;;;22.96;38.95;100246.91;5080185;28;20044;-86
2022/09/01 11:41:55;;;;;;;3.22;1.95;;;;;;;23.14;38.91;100251.53;5091767;28;20055;-86